Terminal Aerodrome Forecast
Issued by NWS Topeka, KS

Home | Current Version | Previous Version | Graphics & Text | Print | Product List | Glossary On
Versions: 1 2 3 4 5 6 7 8 9 10 11 12 13 14 15 16 17
000
FTUS43 KTOP 282300
TAFTOP
TAF
KTOP 282325Z 2900/2924 14003KT P6SM SKC
     FM290700 00000KT 6SM BR SKC
      TEMPO 2909/2913 00000KT 1 1/2SM BR
     FM291400 15005KT P6SM SKC=

USA.gov is the U.S. government's official web portal to all federal, state and local government web resources and services.